Time;durP1;ratioP1;P1;durP2;ratioP2;P2;SDS_P1;SDS_P2;PMS_P1;PMS_P2;Temp;Humidity;BMP_temperature;BMP_pressure;BME280_temperature;BME280_humidity;BME280_pressure;Samples;Min_cycle;Max_cycle;Signal;HPM_P1;HPM_P2
2023/08/05 00:01:27;;;;;;;0.20;0.20;;;16.40;99.90;;;;;;4821147;29;20514;-80
2023/08/05 00:03:52;;;;;;;0.20;0.20;;;16.40;99.90;;;;;;4818372;29;20050;-78
2023/08/05 00:06:18;;;;;;;0.13;0.13;;;16.40;99.90;;;;;;4819404;29;20441;-78
2023/08/05 00:08:44;;;;;;;0.20;0.20;;;16.40;99.90;;;;;;4819329;29;20042;-80
2023/08/05 00:11:09;;;;;;;0.20;0.20;;;16.40;99.90;;;;;;4809760;29;20050;-80
2023/08/05 00:13:35;;;;;;;0.10;0.10;;;16.40;99.90;;;;;;4819103;29;20696;-78
2023/08/05 00:16:02;;;;;;;0.20;0.20;;;16.40;99.90;;;;;;4819142;29;20093;-79
2023/08/05 00:18:28;;;;;;;0.20;0.20;;;16.40;99.90;;;;;;4820157;29;20058;-79
2023/08/05 00:20:53;;;;;;;0.20;0.20;;;16.40;99.90;;;;;;4818829;29;20046;-79
2023/08/05 00:23:19;;;;;;;0.10;0.10;;;16.40;99.90;;;;;;4820068;29;20081;-79
2023/08/05 00:25:45;;;;;;;0.10;0.10;;;16.40;99.90;;;;;;4817402;29;20558;-79
2023/08/05 00:28:11;;;;;;;0.20;0.20;;;16.40;99.90;;;;;;4818241;29;20039;-79
2023/08/05 00:30:37;;;;;;;0.20;0.20;;;16.40;99.90;;;;;;4802319;29;20460;-79
2023/08/05 00:33:03;;;;;;;0.20;0.20;;;16.40;99.90;;;;;;4819536;29;20050;-79
2023/08/05 00:35:28;;;;;;;0.17;0.17;;;16.40;99.90;;;;;;4818360;29;20042;-79
2023/08/05 00:37:54;;;;;;;0.20;0.20;;;16.40;99.90;;;;;;4820378;29;20262;-79
2023/08/05 00:40:19;;;;;;;0.20;0.20;;;16.30;99.90;;;;;;4819531;29;20050;-79
2023/08/05 00:42:45;;;;;;;0.10;0.10;;;16.30;99.90;;;;;;4818496;29;20050;-79
2023/08/05 00:45:11;;;;;;;0.20;0.20;;;16.30;99.90;;;;;;4821256;29;20050;-78
2023/08/05 00:47:36;;;;;;;0.17;0.17;;;16.30;99.90;;;;;;4820935;29;20056;-78
2023/08/05 00:50:04;;;;;;;0.17;0.17;;;16.30;99.90;;;;;;4822212;29;20083;-78
2023/08/05 00:52:30;;;;;;;0.20;0.20;;;16.30;99.90;;;;;;4823994;29;20551;-78
2023/08/05 00:54:56;;;;;;;0.20;0.20;;;16.30;99.90;;;;;;4829041;29;20050;-79
2023/08/05 00:57:22;;;;;;;0.17;0.17;;;16.30;99.90;;;;;;4821820;29;20051;-78
2023/08/05 00:59:48;;;;;;;0.20;0.20;;;16.20;99.90;;;;;;4820507;29;20050;-78
2023/08/05 01:02:14;;;;;;;0.20;0.20;;;16.20;99.90;;;;;;4820591;29;20103;-77
2023/08/05 01:04:40;;;;;;;0.20;0.20;;;16.20;99.90;;;;;;4821389;29;20086;-78
2023/08/05 01:07:06;;;;;;;0.10;0.10;;;16.20;99.90;;;;;;4822080;29;20042;-78
2023/08/05 01:09:32;;;;;;;0.10;0.10;;;16.20;99.90;;;;;;4821576;29;20567;-79
2023/08/05 01:11:57;;;;;;;0.10;0.10;;;16.20;99.90;;;;;;4820558;29;20058;-79
2023/08/05 01:14:23;;;;;;;0.20;0.20;;;16.20;99.90;;;;;;4821000;29;20574;-79
2023/08/05 01:16:48;;;;;;;0.20;0.20;;;16.20;99.90;;;;;;4820995;29;20046;-79
2023/08/05 01:19:23;;;;;;;0.20;0.20;;;16.20;99.90;;;;;;4823680;29;20047;-79
2023/08/05 01:22:07;;;;;;;0.20;0.20;;;16.10;99.90;;;;;;4808162;29;20057;-79
2023/08/05 01:24:52;;;;;;;0.20;0.20;;;16.10;99.90;;;;;;4821065;29;20065;-79
2023/08/05 01:27:18;;;;;;;0.10;0.10;;;16.10;99.90;;;;;;4816888;29;20047;-78
2023/08/05 01:29:44;;;;;;;0.10;0.10;;;16.00;99.90;;;;;;4805314;29;20114;-79
2023/08/05 01:32:10;;;;;;;0.20;0.20;;;16.00;99.90;;;;;;4822708;29;20047;-79
2023/08/05 01:34:37;;;;;;;0.20;0.20;;;16.00;99.90;;;;;;4823384;29;20063;-79
2023/08/05 01:37:03;;;;;;;0.20;0.20;;;15.90;99.90;;;;;;4822137;29;20060;-79
2023/08/05 01:39:29;;;;;;;0.13;0.13;;;15.90;99.90;;;;;;4821308;29;20061;-79
2023/08/05 01:41:55;;;;;;;0.20;0.20;;;15.90;99.90;;;;;;4821421;29;20050;-80
2023/08/05 01:44:21;;;;;;;0.20;0.20;;;15.80;99.90;;;;;;4821015;29;20045;-79
2023/08/05 01:46:47;;;;;;;0.20;0.20;;;15.80;99.90;;;;;;4821992;29;20526;-79
2023/08/05 01:49:13;;;;;;;0.20;0.20;;;15.70;99.90;;;;;;4822907;29;20042;-79
2023/08/05 01:51:38;;;;;;;0.20;0.20;;;15.70;99.90;;;;;;4806453;29;20085;-78
2023/08/05 01:54:04;;;;;;;0.20;0.20;;;15.70;99.90;;;;;;4815407;29;20054;-78
2023/08/05 01:56:30;;;;;;;0.10;0.10;;;15.70;99.90;;;;;;4821553;29;20111;-78
2023/08/05 01:58:56;;;;;;;0.20;0.20;;;15.60;99.90;;;;;;4811781;29;20512;-78
2023/08/05 02:01:21;;;;;;;0.20;0.20;;;15.60;99.90;;;;;;4820221;29;20261;-78
2023/08/05 02:03:47;;;;;;;0.20;0.20;;;15.60;99.90;;;;;;4820910;29;20046;-78
2023/08/05 02:06:14;;;;;;;0.10;0.10;;;15.50;99.90;;;;;;4804332;29;20107;-79
2023/08/05 02:08:40;;;;;;;0.20;0.20;;;15.50;99.90;;;;;;4819244;29;20109;-78
2023/08/05 02:11:05;;;;;;;0.17;0.17;;;15.50;99.90;;;;;;4821624;29;20479;-78
2023/08/05 02:13:31;;;;;;;0.20;0.20;;;15.40;99.90;;;;;;4820401;29;20061;-78
2023/08/05 02:15:57;;;;;;;0.20;0.20;;;15.40;99.90;;;;;;4821968;29;20042;-78
2023/08/05 02:18:22;;;;;;;0.10;0.10;;;15.30;99.90;;;;;;4820621;29;20042;-79
2023/08/05 02:20:48;;;;;;;0.17;0.17;;;15.30;99.90;;;;;;4822310;29;20038;-80
2023/08/05 02:23:14;;;;;;;0.20;0.20;;;15.30;99.90;;;;;;4820677;29;20057;-79
2023/08/05 02:25:40;;;;;;;0.20;0.20;;;15.30;99.90;;;;;;4806669;29;20056;-79
2023/08/05 02:28:05;;;;;;;0.20;0.20;;;15.20;99.90;;;;;;4813642;29;20480;-79
2023/08/05 02:30:31;;;;;;;0.20;0.20;;;15.10;99.90;;;;;;4822626;29;20050;-79
2023/08/05 02:32:57;;;;;;;0.20;0.20;;;15.20;99.90;;;;;;4804280;29;20091;-79
2023/08/05 02:35:23;;;;;;;0.20;0.20;;;15.10;99.90;;;;;;4806300;29;20115;-79
2023/08/05 02:37:48;;;;;;;0.20;0.20;;;15.10;99.90;;;;;;4821042;29;20042;-79
2023/08/05 02:40:14;;;;;;;0.20;0.20;;;15.00;99.90;;;;;;4822051;29;20062;-79
2023/08/05 02:42:40;;;;;;;0.20;0.20;;;15.00;99.90;;;;;;4806280;29;20062;-79
2023/08/05 02:45:06;;;;;;;0.20;0.20;;;15.00;99.90;;;;;;4806042;29;20054;-79
2023/08/05 02:47:31;;;;;;;0.20;0.20;;;15.00;99.90;;;;;;4822239;29;20061;-79
2023/08/05 02:49:57;;;;;;;0.20;0.20;;;15.00;99.90;;;;;;4818710;29;20042;-79
2023/08/05 02:52:23;;;;;;;0.20;0.20;;;14.90;99.90;;;;;;4820963;29;20154;-79
2023/08/05 02:54:49;;;;;;;0.20;0.20;;;14.90;99.90;;;;;;4820743;29;20042;-80
2023/08/05 02:57:14;;;;;;;0.20;0.20;;;14.90;99.90;;;;;;4806351;29;20057;-79
2023/08/05 02:59:40;;;;;;;0.10;0.10;;;14.90;99.90;;;;;;4821773;29;20050;-79
2023/08/05 03:02:06;;;;;;;0.20;0.20;;;14.90;99.90;;;;;;4821619;29;20043;-79
2023/08/05 03:04:31;;;;;;;0.10;0.10;;;14.80;99.90;;;;;;4819141;29;20042;-79
2023/08/05 03:06:57;;;;;;;0.20;0.20;;;14.80;99.90;;;;;;4820525;29;20407;-79
2023/08/05 03:09:23;;;;;;;0.20;0.20;;;14.80;99.90;;;;;;4818646;29;20049;-79
2023/08/05 03:11:48;;;;;;;0.10;0.10;;;14.80;99.90;;;;;;4819668;29;20046;-79
2023/08/05 03:14:14;;;;;;;0.20;0.20;;;14.80;99.90;;;;;;4821596;29;20038;-79
2023/08/05 03:16:41;;;;;;;0.20;0.20;;;14.80;99.90;;;;;;4820251;29;20046;-79
2023/08/05 03:19:06;;;;;;;0.20;0.20;;;14.80;99.90;;;;;;4817671;29;20131;-79
2023/08/05 03:21:32;;;;;;;0.20;0.20;;;14.70;99.90;;;;;;4820200;29;20129;-80
2023/08/05 03:23:58;;;;;;;0.10;0.10;;;14.70;99.90;;;;;;4819001;29;20604;-79
2023/08/05 03:26:23;;;;;;;0.20;0.20;;;14.70;99.90;;;;;;4821015;29;20043;-79
2023/08/05 03:28:49;;;;;;;0.13;0.13;;;14.60;99.90;;;;;;4818393;29;20050;-79
2023/08/05 03:31:15;;;;;;;0.20;0.20;;;14.70;99.90;;;;;;4821231;29;20085;-79
2023/08/05 03:33:41;;;;;;;0.20;0.20;;;14.60;99.90;;;;;;4818580;29;20073;-80
2023/08/05 03:36:07;;;;;;;0.20;0.20;;;14.60;99.90;;;;;;4806034;29;20046;-79
2023/08/05 03:38:33;;;;;;;0.10;0.10;;;14.60;99.90;;;;;;4819559;29;20094;-79
2023/08/05 03:41:05;;;;;;;0.20;0.20;;;14.60;99.90;;;;;;4820749;29;20491;-79
2023/08/05 03:43:30;;;;;;;0.10;0.10;;;14.60;99.90;;;;;;4819314;29;20046;-79
2023/08/05 03:45:56;;;;;;;0.20;0.20;;;14.60;99.90;;;;;;4822099;29;20081;-79
2023/08/05 03:48:22;;;;;;;0.10;0.10;;;14.60;99.90;;;;;;4820620;29;20137;-79
2023/08/05 03:50:47;;;;;;;0.20;0.20;;;14.60;99.90;;;;;;4819972;29;20046;-79
2023/08/05 03:53:13;;;;;;;0.20;0.20;;;14.60;99.90;;;;;;4819909;29;20479;-79
2023/08/05 03:55:39;;;;;;;0.15;0.15;;;14.60;99.90;;;;;;4819510;29;20050;-79
2023/08/05 03:58:07;;;;;;;0.20;0.20;;;14.60;99.90;;;;;;4819773;29;20046;-79
2023/08/05 04:00:32;;;;;;;0.20;0.20;;;14.60;99.90;;;;;;4816723;29;20118;-79
2023/08/05 04:02:58;;;;;;;0.20;0.20;;;14.60;99.90;;;;;;4819495;29;20490;-79
2023/08/05 04:05:24;;;;;;;0.10;0.10;;;14.60;99.90;;;;;;4818832;29;20042;-79
2023/08/05 04:07:49;;;;;;;0.15;0.15;;;14.60;99.90;;;;;;4821467;29;20078;-79
2023/08/05 04:10:19;;;;;;;0.20;0.20;;;14.60;99.90;;;;;;4821458;29;20095;-78
2023/08/05 04:12:45;;;;;;;0.20;0.20;;;14.60;99.90;;;;;;4804196;29;20050;-79
2023/08/05 04:15:13;;;;;;;0.20;0.20;;;14.70;99.90;;;;;;4819086;29;20399;-79
2023/08/05 04:17:38;;;;;;;0.20;0.20;;;14.70;99.90;;;;;;4820086;29;20060;-79
2023/08/05 04:20:05;;;;;;;0.20;0.20;;;14.70;99.90;;;;;;4817560;29;20050;-79
2023/08/05 04:22:31;;;;;;;0.20;0.20;;;14.70;99.90;;;;;;4819709;29;20076;-79
2023/08/05 04:24:57;;;;;;;0.20;0.20;;;14.70;99.90;;;;;;4818208;29;20055;-79
2023/08/05 04:27:24;;;;;;;0.20;0.20;;;14.80;99.90;;;;;;4819721;29;20049;-79
2023/08/05 04:29:50;;;;;;;0.17;0.17;;;14.80;99.90;;;;;;4817884;29;20050;-79
2023/08/05 04:32:16;;;;;;;0.20;0.20;;;14.80;99.90;;;;;;4821464;29;20444;-79
2023/08/05 04:34:42;;;;;;;0.20;0.20;;;14.90;99.90;;;;;;4817823;29;20145;-79
2023/08/05 04:37:21;;;;;;;0.20;0.20;;;14.90;99.90;;;;;;4820491;29;20103;-79
2023/08/05 04:39:48;;;;;;;0.20;0.20;;;14.90;99.90;;;;;;4817868;29;20062;-79
2023/08/05 04:42:14;;;;;;;0.10;0.10;;;14.90;99.90;;;;;;4821318;29;20408;-79
2023/08/05 04:44:41;;;;;;;0.20;0.20;;;15.00;99.90;;;;;;4820109;29;20492;-80
2023/08/05 04:47:08;;;;;;;0.20;0.20;;;14.90;99.90;;;;;;4819129;29;20062;-79
2023/08/05 04:49:34;;;;;;;0.10;0.10;;;14.90;99.90;;;;;;4818990;29;20042;-79
2023/08/05 04:52:02;;;;;;;0.13;0.13;;;15.00;99.90;;;;;;4820139;29;20510;-79
2023/08/05 04:54:28;;;;;;;0.10;0.10;;;15.00;99.90;;;;;;4818779;29;20050;-79
2023/08/05 04:56:53;;;;;;;0.20;0.20;;;15.00;99.90;;;;;;4820006;29;20058;-79
2023/08/05 04:59:19;;;;;;;0.20;0.20;;;15.00;99.90;;;;;;4820755;29;20098;-79
2023/08/05 05:01:45;;;;;;;0.20;0.20;;;15.10;99.90;;;;;;4815884;29;20478;-79
2023/08/05 05:04:10;;;;;;;0.20;0.20;;;15.10;99.90;;;;;;4802917;29;20089;-79
2023/08/05 05:06:36;;;;;;;0.10;0.10;;;15.00;99.90;;;;;;4819875;29;20050;-79
2023/08/05 05:09:01;;;;;;;0.20;0.20;;;15.10;99.90;;;;;;4818221;29;20085;-79
2023/08/05 05:11:27;;;;;;;0.17;0.17;;;15.10;99.90;;;;;;4821057;29;20456;-76
2023/08/05 05:13:53;;;;;;;0.10;0.10;;;15.20;99.90;;;;;;4819079;29;20051;-77
2023/08/05 05:16:19;;;;;;;0.13;0.13;;;15.20;99.90;;;;;;4818341;29;20058;-79
2023/08/05 05:18:44;;;;;;;0.20;0.20;;;15.20;99.90;;;;;;4803490;29;20046;-79
2023/08/05 05:21:10;;;;;;;0.10;0.10;;;15.30;99.90;;;;;;4821311;29;20582;-80
2023/08/05 05:23:36;;;;;;;0.15;0.15;;;15.30;99.90;;;;;;4819404;29;20575;-79
2023/08/05 05:26:01;;;;;;;0.20;0.20;;;15.30;99.90;;;;;;4819620;29;20046;-79
2023/08/05 05:28:27;;;;;;;0.20;0.20;;;15.30;99.90;;;;;;4805372;29;20081;-79
2023/08/05 05:30:53;;;;;;;0.20;0.20;;;15.30;99.90;;;;;;4812589;29;20046;-80
2023/08/05 05:33:18;;;;;;;0.20;0.20;;;15.40;99.90;;;;;;4814179;29;20417;-79
2023/08/05 05:35:44;;;;;;;0.20;0.20;;;15.40;99.90;;;;;;4819876;29;20523;-79
2023/08/05 05:38:10;;;;;;;0.20;0.20;;;15.40;99.90;;;;;;4820848;29;20038;-79
2023/08/05 05:40:42;;;;;;;0.20;0.20;;;15.50;99.90;;;;;;4821289;29;20059;-79
2023/08/05 05:43:08;;;;;;;0.20;0.20;;;15.50;99.90;;;;;;4824425;29;20053;-79
2023/08/05 05:45:37;;;;;;;0.20;0.20;;;15.60;99.90;;;;;;4820952;29;20449;-80
2023/08/05 05:48:03;;;;;;;0.20;0.20;;;15.60;99.90;;;;;;4821187;29;20063;-79
2023/08/05 05:50:30;;;;;;;0.20;0.20;;;15.60;99.90;;;;;;4813299;29;20104;-80
2023/08/05 05:52:56;;;;;;;0.20;0.20;;;15.70;99.90;;;;;;4805039;29;20522;-79
2023/08/05 05:55:21;;;;;;;0.20;0.20;;;15.60;99.90;;;;;;4817720;29;20130;-80
2023/08/05 05:57:48;;;;;;;0.10;0.10;;;15.60;99.90;;;;;;4822594;29;20047;-80
2023/08/05 06:00:14;;;;;;;0.20;0.20;;;15.60;99.90;;;;;;4821649;29;20054;-80
2023/08/05 06:02:41;;;;;;;0.20;0.20;;;15.60;99.90;;;;;;4823485;29;20061;-79
2023/08/05 06:05:07;;;;;;;0.10;0.10;;;15.60;99.90;;;;;;4821436;29;20419;-80
2023/08/05 06:07:33;;;;;;;0.20;0.20;;;15.70;99.90;;;;;;4806641;29;20050;-79
2023/08/05 06:09:59;;;;;;;0.20;0.20;;;15.70;99.90;;;;;;4823343;29;20054;-79
2023/08/05 06:12:30;;;;;;;0.20;0.20;;;15.70;99.90;;;;;;4806431;29;20050;-79
2023/08/05 06:14:56;;;;;;;0.20;0.20;;;15.70;99.90;;;;;;4806385;29;20463;-79
2023/08/05 06:17:21;;;;;;;0.20;0.20;;;15.80;99.90;;;;;;4821600;29;20116;-79
2023/08/05 06:19:47;;;;;;;0.20;0.20;;;15.80;99.90;;;;;;4820997;29;20429;-79
2023/08/05 06:22:16;;;;;;;0.20;0.20;;;15.80;99.90;;;;;;4821960;29;20768;-78
2023/08/05 06:24:41;;;;;;;0.20;0.20;;;15.80;99.90;;;;;;4819718;29;20090;-78
2023/08/05 06:27:07;;;;;;;0.20;0.20;;;15.80;99.90;;;;;;4820269;29;20045;-78
2023/08/05 06:29:33;;;;;;;0.20;0.20;;;15.90;99.90;;;;;;4819940;29;20491;-78
2023/08/05 06:31:59;;;;;;;0.20;0.20;;;15.90;99.90;;;;;;4820595;29;20062;-77
2023/08/05 06:34:24;;;;;;;0.20;0.20;;;16.00;99.90;;;;;;4818680;29;20051;-77
2023/08/05 06:36:50;;;;;;;0.10;0.10;;;16.00;99.90;;;;;;4802941;29;20058;-80
2023/08/05 06:39:16;;;;;;;0.20;0.20;;;16.00;99.90;;;;;;4819831;29;20051;-79
2023/08/05 06:41:41;;;;;;;0.10;0.10;;;16.00;99.90;;;;;;4820245;29;20550;-81
2023/08/05 06:44:07;;;;;;;0.10;0.10;;;16.10;99.90;;;;;;4818198;29;20046;-81
2023/08/05 06:46:32;;;;;;;0.20;0.20;;;16.10;99.90;;;;;;4826148;29;20064;-80
2023/08/05 06:48:58;;;;;;;0.20;0.20;;;16.10;99.90;;;;;;4828169;29;20540;-79
2023/08/05 06:51:24;;;;;;;0.20;0.20;;;16.10;99.90;;;;;;4806445;29;20054;-81
2023/08/05 06:53:50;;;;;;;0.20;0.20;;;16.10;99.90;;;;;;4821819;29;20046;-82
2023/08/05 06:56:15;;;;;;;0.20;0.20;;;16.20;99.90;;;;;;4823126;29;20058;-83
2023/08/05 06:58:42;;;;;;;0.20;0.20;;;16.20;99.90;;;;;;4837610;29;20081;-82
2023/08/05 07:01:08;;;;;;;0.20;0.20;;;16.20;99.90;;;;;;4834644;29;20110;-83
2023/08/05 07:03:33;;;;;;;0.20;0.20;;;16.30;99.90;;;;;;4802200;29;20039;-83
2023/08/05 07:05:59;;;;;;;0.20;0.20;;;16.30;99.90;;;;;;4806564;29;20054;-82
2023/08/05 07:08:25;;;;;;;0.20;0.20;;;16.40;99.90;;;;;;4821535;29;20121;-82
2023/08/05 07:10:55;;;;;;;0.20;0.20;;;16.40;99.90;;;;;;4822739;29;20085;-82
2023/08/05 07:13:21;;;;;;;0.20;0.20;;;16.50;99.90;;;;;;4828514;29;20042;-82
2023/08/05 07:15:47;;;;;;;0.20;0.20;;;16.60;99.90;;;;;;4817091;29;20384;-82
2023/08/05 07:18:12;;;;;;;0.20;0.20;;;16.70;99.90;;;;;;4818413;29;20054;-81
2023/08/05 07:20:41;;;;;;;0.20;0.20;;;16.80;99.90;;;;;;4810295;29;20057;-81
2023/08/05 07:23:07;;;;;;;0.20;0.20;;;16.80;99.90;;;;;;4821349;29;20053;-80
2023/08/05 07:25:33;;;;;;;0.20;0.20;;;16.80;99.90;;;;;;4803010;29;20046;-82
2023/08/05 07:27:58;;;;;;;0.20;0.20;;;16.90;99.90;;;;;;4820036;29;20054;-82
2023/08/05 07:30:24;;;;;;;0.20;0.20;;;16.90;99.90;;;;;;4817925;29;20137;-81
2023/08/05 07:32:50;;;;;;;0.10;0.10;;;16.90;99.90;;;;;;4804675;29;20055;-81
2023/08/05 07:35:15;;;;;;;0.20;0.20;;;17.00;99.90;;;;;;4805393;29;20073;-81
2023/08/05 07:37:44;;;;;;;0.10;0.10;;;17.00;99.90;;;;;;4819334;29;20518;-81
2023/08/05 07:40:12;;;;;;;0.20;0.20;;;17.00;99.90;;;;;;4819082;29;20761;-80
2023/08/05 07:42:43;;;;;;;0.20;0.20;;;17.00;99.90;;;;;;4819734;29;20514;-81
2023/08/05 07:45:14;;;;;;;0.20;0.20;;;17.10;99.90;;;;;;4818846;29;20121;-82
2023/08/05 07:47:41;;;;;;;0.20;0.20;;;17.10;99.90;;;;;;4820171;29;20556;-81
2023/08/05 07:50:10;;;;;;;0.20;0.20;;;17.10;99.90;;;;;;4820490;29;20046;-81
2023/08/05 07:52:39;;;;;;;0.20;0.20;;;17.20;99.90;;;;;;4804554;29;20138;-82
2023/08/05 07:55:05;;;;;;;0.20;0.20;;;17.20;99.90;;;;;;4820023;29;20702;-82
2023/08/05 07:57:31;;;;;;;0.20;0.20;;;17.20;99.90;;;;;;4818928;29;20058;-81
2023/08/05 07:59:57;;;;;;;0.20;0.20;;;17.20;99.90;;;;;;4814304;29;20121;-81
2023/08/05 08:02:24;;;;;;;0.20;0.20;;;17.30;99.90;;;;;;4813929;29;20559;-82
2023/08/05 08:04:54;;;;;;;0.30;0.30;;;17.30;99.90;;;;;;4800651;29;20437;-81
2023/08/05 08:07:21;;;;;;;0.13;0.13;;;17.30;99.90;;;;;;4811807;29;20066;-81
2023/08/05 08:09:47;;;;;;;0.20;0.20;;;17.40;99.90;;;;;;4802005;29;20046;-82
2023/08/05 08:12:13;;;;;;;0.20;0.20;;;17.50;99.90;;;;;;4815260;29;20057;-82
2023/08/05 08:14:38;;;;;;;0.30;0.30;;;17.50;99.90;;;;;;4817664;29;20131;-79
2023/08/05 08:17:04;;;;;;;0.20;0.20;;;17.50;99.90;;;;;;4818094;29;20090;-82
2023/08/05 08:19:30;;;;;;;0.20;0.20;;;17.60;99.90;;;;;;4817085;29;20056;-82
2023/08/05 08:21:55;;;;;;;0.10;0.10;;;17.70;99.90;;;;;;4819529;29;20053;-82
2023/08/05 08:24:21;;;;;;;0.20;0.20;;;17.70;99.90;;;;;;4808961;29;20062;-81
2023/08/05 08:26:47;;;;;;;0.20;0.20;;;17.80;99.90;;;;;;4818949;29;20075;-82
2023/08/05 08:29:13;;;;;;;0.20;0.20;;;17.80;99.90;;;;;;4819708;29;20054;-81
2023/08/05 08:31:38;;;;;;;0.20;0.20;;;17.80;99.90;;;;;;4822593;29;20073;-82
2023/08/05 08:34:04;;;;;;;0.20;0.20;;;17.90;99.90;;;;;;4816961;29;20054;-81
2023/08/05 08:36:29;;;;;;;0.20;0.20;;;17.90;99.90;;;;;;4810687;29;20057;-81
2023/08/05 08:38:55;;;;;;;0.20;0.20;;;17.90;99.90;;;;;;4800810;29;20066;-80
2023/08/05 08:41:21;;;;;;;0.20;0.20;;;17.90;99.90;;;;;;4811272;29;22257;-81
2023/08/05 08:43:50;;;;;;;0.20;0.20;;;18.00;99.90;;;;;;4811431;29;20042;-82
2023/08/05 08:46:18;;;;;;;0.20;0.20;;;18.00;99.90;;;;;;4814544;29;20107;-81
2023/08/05 08:48:44;;;;;;;0.20;0.20;;;18.00;99.90;;;;;;4810671;29;20050;-81
2023/08/05 08:51:11;;;;;;;0.17;0.17;;;18.00;99.90;;;;;;4815849;29;20050;-81
2023/08/05 08:53:37;;;;;;;0.20;0.20;;;18.00;99.90;;;;;;4809724;29;20069;-81
2023/08/05 08:56:03;;;;;;;0.20;0.20;;;18.10;99.90;;;;;;4809438;29;20054;-82
2023/08/05 08:58:28;;;;;;;0.20;0.20;;;18.10;99.90;;;;;;4813633;29;20039;-82
2023/08/05 09:00:54;;;;;;;0.20;0.20;;;18.10;99.90;;;;;;4815660;29;20050;-82
2023/08/05 09:03:24;;;;;;;0.20;0.20;;;18.20;99.90;;;;;;4810789;29;20043;-82
2023/08/05 09:05:55;;;;;;;0.20;0.20;;;18.20;99.90;;;;;;4818390;29;20055;-82
2023/08/05 09:08:20;;;;;;;0.20;0.20;;;18.30;99.90;;;;;;4814405;29;20437;-80
2023/08/05 09:10:46;;;;;;;0.20;0.20;;;18.40;99.90;;;;;;4812273;29;20054;-79
2023/08/05 09:13:16;;;;;;;0.20;0.20;;;18.50;99.90;;;;;;4807294;29;20089;-81
2023/08/05 09:15:41;;;;;;;0.20;0.20;;;18.60;99.90;;;;;;4809997;29;20777;-80
2023/08/05 09:18:08;;;;;;;0.20;0.20;;;18.60;99.90;;;;;;4814186;29;20050;-82
2023/08/05 09:20:35;;;;;;;0.20;0.20;;;18.60;99.90;;;;;;4798824;29;20042;-81
2023/08/05 09:23:06;;;;;;;0.20;0.20;;;18.60;99.90;;;;;;4815142;29;20054;-80
2023/08/05 09:25:33;;;;;;;0.20;0.20;;;18.60;99.90;;;;;;4824696;29;20070;-80
2023/08/05 09:28:01;;;;;;;0.20;0.20;;;18.60;99.90;;;;;;4823527;29;20154;-80
2023/08/05 09:30:27;;;;;;;0.20;0.20;;;18.70;99.90;;;;;;4822073;29;20042;-80
2023/08/05 09:32:56;;;;;;;0.20;0.20;;;18.70;99.90;;;;;;4821204;29;20142;-80
2023/08/05 09:35:24;;;;;;;0.20;0.20;;;18.60;99.90;;;;;;4812098;29;20061;-80
2023/08/05 09:37:52;;;;;;;0.20;0.20;;;18.60;99.90;;;;;;4824571;29;20045;-80
2023/08/05 09:40:36;;;;;;;0.20;0.20;;;18.70;99.90;;;;;;4816617;29;20070;-80
2023/08/05 09:43:03;;;;;;;0.20;0.20;;;18.70;99.90;;;;;;4822168;29;20630;-80
2023/08/05 09:45:32;;;;;;;0.20;0.20;;;18.80;99.90;;;;;;4822655;29;20058;-80
2023/08/05 09:48:07;;;;;;;0.15;0.15;;;18.80;99.90;;;;;;4822295;29;20142;-80
2023/08/05 09:50:38;;;;;;;0.20;0.20;;;18.90;99.90;;;;;;4820914;29;20170;-80
2023/08/05 09:53:16;;;;;;;0.20;0.20;;;18.90;99.90;;;;;;4820873;29;20058;-80
2023/08/05 09:55:43;;;;;;;0.20;0.20;;;19.00;99.90;;;;;;4823086;29;20121;-80
2023/08/05 09:58:10;;;;;;;0.20;0.20;;;19.00;99.90;;;;;;4818468;29;20050;-80
2023/08/05 10:00:37;;;;;;;0.20;0.20;;;19.10;99.90;;;;;;4814001;29;20077;-80
2023/08/05 10:03:07;;;;;;;0.20;0.20;;;19.20;99.90;;;;;;4800881;29;20129;-81
2023/08/05 10:05:34;;;;;;;0.30;0.30;;;19.20;99.90;;;;;;4822507;29;20073;-80
2023/08/05 10:08:00;;;;;;;0.17;0.17;;;19.20;99.90;;;;;;4814710;29;20445;-80
2023/08/05 10:10:29;;;;;;;0.20;0.20;;;19.30;99.90;;;;;;4816170;29;20092;-79
2023/08/05 10:13:03;;;;;;;0.20;0.20;;;19.30;99.90;;;;;;4821877;29;20043;-79
2023/08/05 10:15:32;;;;;;;0.20;0.20;;;19.40;99.90;;;;;;4812978;29;20054;-77
2023/08/05 10:17:57;;;;;;;0.20;0.20;;;19.40;99.90;;;;;;4810075;29;20046;-79
2023/08/05 10:20:23;;;;;;;0.20;0.20;;;19.50;99.90;;;;;;4815860;29;20439;-80
2023/08/05 10:23:10;;;;;;;0.20;0.20;;;19.50;99.90;;;;;;4814315;29;20049;-79
2023/08/05 10:25:41;;;;;;;0.20;0.20;;;19.50;99.90;;;;;;4817685;29;20396;-78
2023/08/05 10:28:08;;;;;;;0.20;0.20;;;19.60;99.90;;;;;;4816465;29;20095;-80
2023/08/05 10:30:42;;;;;;;0.20;0.20;;;19.60;99.90;;;;;;4816989;29;20137;-79
2023/08/05 10:33:07;;;;;;;0.20;0.20;;;19.60;99.90;;;;;;4815152;29;20054;-79
2023/08/05 10:35:39;;;;;;;0.20;0.20;;;19.60;99.90;;;;;;4801970;29;20047;-80
2023/08/05 10:38:06;;;;;;;0.20;0.20;;;19.50;99.90;;;;;;4817661;29;20065;-80
2023/08/05 10:40:45;;;;;;;0.20;0.20;;;19.50;99.90;;;;;;4816177;29;20159;-79
2023/08/05 10:43:11;;;;;;;0.20;0.20;;;19.50;99.90;;;;;;4820827;29;20514;-80
2023/08/05 10:45:42;;;;;;;0.20;0.20;;;19.50;99.90;;;;;;4817772;29;20841;-81
2023/08/05 10:48:13;;;;;;;0.20;0.20;;;19.50;99.90;;;;;;4818555;29;20054;-79
2023/08/05 10:50:41;;;;;;;0.20;0.20;;;19.60;99.90;;;;;;4817281;29;20587;-80
2023/08/05 10:53:12;;;;;;;0.20;0.20;;;19.70;99.90;;;;;;4816538;29;20085;-81
2023/08/05 10:55:48;;;;;;;0.20;0.20;;;19.70;99.90;;;;;;4817481;29;20141;-81
2023/08/05 10:58:34;;;;;;;0.20;0.20;;;19.70;99.90;;;;;;4816358;29;20070;-80
2023/08/05 11:01:02;;;;;;;0.20;0.20;;;19.80;99.90;;;;;;4816600;29;20050;-81
2023/08/05 11:03:37;;;;;;;0.20;0.20;;;19.90;99.90;;;;;;4819954;29;20503;-79
2023/08/05 11:06:04;;;;;;;0.20;0.20;;;19.90;99.90;;;;;;4816058;29;20038;-80
2023/08/05 11:08:31;;;;;;;0.20;0.20;;;19.90;99.90;;;;;;4801845;29;20085;-78
2023/08/05 11:11:00;;;;;;;0.20;0.20;;;19.90;99.90;;;;;;4820001;29;20050;-77
2023/08/05 11:13:26;;;;;;;0.20;0.20;;;19.90;99.90;;;;;;4811431;29;20046;-79
2023/08/05 11:16:27;;;;;;;0.20;0.20;;;20.00;99.90;;;;;;4814562;29;20069;-80
2023/08/05 11:18:57;;;;;;;0.20;0.20;;;20.10;99.90;;;;;;4780297;29;20152;-79
2023/08/05 11:21:23;;;;;;;0.20;0.20;;;20.20;99.90;;;;;;4803376;29;20568;-77
2023/08/05 11:23:49;;;;;;;0.20;0.20;;;20.30;99.90;;;;;;4812517;29;20103;-79
2023/08/05 11:26:14;;;;;;;0.20;0.20;;;20.40;99.90;;;;;;4818837;29;20570;-79
2023/08/05 11:28:45;;;;;;;0.20;0.20;;;20.50;99.90;;;;;;4799346;29;20129;-79
2023/08/05 11:31:28;;;;;;;0.20;0.20;;;20.50;99.90;;;;;;4818098;29;20093;-79
2023/08/05 11:33:54;;;;;;;0.20;0.20;;;20.60;99.90;;;;;;4810195;29;20347;-79
2023/08/05 11:36:28;;;;;;;0.20;0.20;;;20.60;99.90;;;;;;4816286;29;20046;-80
2023/08/05 11:38:57;;;;;;;0.20;0.20;;;20.60;99.90;;;;;;4810520;29;20046;-79
2023/08/05 11:41:27;;;;;;;0.20;0.20;;;20.70;99.90;;;;;;4818583;29;20506;-80
2023/08/05 11:43:54;;;;;;;0.20;0.20;;;20.70;99.90;;;;;;4817186;29;20150;-79
2023/08/05 11:46:29;;;;;;;0.20;0.20;;;20.80;99.90;;;;;;4818986;29;20050;-80
2023/08/05 11:49:11;;;;;;;0.20;0.20;;;20.90;99.90;;;;;;4818602;29;20051;-79
2023/08/05 11:51:51;;;;;;;0.20;0.20;;;21.00;99.90;;;;;;4817268;29;20042;-79
2023/08/05 11:54:28;;;;;;;0.20;0.20;;;21.10;99.90;;;;;;4816039;29;20117;-79
2023/08/05 11:56:53;;;;;;;0.20;0.20;;;21.20;99.90;;;;;;4818416;29;20043;-80
2023/08/05 11:59:45;;;;;;;0.20;0.20;;;21.20;99.90;;;;;;4816733;29;20057;-80
2023/08/05 12:02:12;;;;;;;0.20;0.20;;;21.30;99.90;;;;;;4798367;29;20187;-79
2023/08/05 12:04:45;;;;;;;0.20;0.20;;;21.30;99.90;;;;;;4810327;29;20093;-80
2023/08/05 12:07:19;;;;;;;0.20;0.20;;;21.20;99.90;;;;;;4815826;29;20039;-80
2023/08/05 12:09:45;;;;;;;0.20;0.20;;;21.30;99.90;;;;;;4814492;29;20051;-81
2023/08/05 12:12:16;;;;;;;0.20;0.20;;;21.30;99.90;;;;;;4819594;29;20061;-81
2023/08/05 12:14:42;;;;;;;0.20;0.20;;;21.30;99.90;;;;;;4812138;29;20146;-81
2023/08/05 12:17:08;;;;;;;0.10;0.10;;;21.20;99.90;;;;;;4816972;29;20125;-80
2023/08/05 12:19:34;;;;;;;0.20;0.20;;;21.10;99.90;;;;;;4818570;29;20196;-81
2023/08/05 12:21:59;;;;;;;0.20;0.20;;;21.10;99.90;;;;;;4801697;29;20050;-80
2023/08/05 12:24:25;;;;;;;0.20;0.20;;;21.00;99.90;;;;;;4801592;29;20065;-80
2023/08/05 12:26:51;;;;;;;0.20;0.20;;;21.00;99.90;;;;;;4817963;29;20050;-77
2023/08/05 12:29:16;;;;;;;0.20;0.20;;;20.90;99.90;;;;;;4814077;29;20054;-80
2023/08/05 12:31:42;;;;;;;0.20;0.20;;;20.90;99.90;;;;;;4819940;29;20042;-79
2023/08/05 12:34:08;;;;;;;0.20;0.20;;;20.90;99.90;;;;;;4811133;29;20511;-79
2023/08/05 12:36:33;;;;;;;0.20;0.20;;;20.90;99.90;;;;;;4812856;29;20451;-80
2023/08/05 12:39:00;;;;;;;0.20;0.20;;;20.80;99.90;;;;;;4813672;29;20534;-81
2023/08/05 12:41:26;;;;;;;0.20;0.20;;;20.70;99.90;;;;;;4799066;29;20062;-80
2023/08/05 12:43:52;;;;;;;0.20;0.20;;;20.70;99.90;;;;;;4819715;29;20491;-80
2023/08/05 12:46:26;;;;;;;0.20;0.20;;;20.60;99.90;;;;;;4822366;29;20045;-81
2023/08/05 12:49:01;;;;;;;0.20;0.20;;;20.50;99.90;;;;;;4807372;29;20042;-81